Stavropol', Russia

8:32 AM MSK on September 28, 2016 (GMT +0300)
Shpakovskoye | | Change Station

Elev 1483 ft 45.12 °N, 42.08 °E | Updated 32 minutes ago

Light Rain Showers
Light Showers Rain
48 °F
Feels Like 48 °F
N
9
Wind Variable Wind from NW

Today
High -- | Low -- °F
--% Chance of Precip.
Yesterday
High -- | Low -- °F
Precip. -- in
Pressure 30.06 in
Visibility 6.2 miles
Clouds Scattered Clouds 600 ft
Mostly Cloudy 2000 ft
Dew Point 48 °F
Humidity 100%
Rainfall 0.00 in
Snow Depth Not available.
6:06 AM 5:57 PM
Waning Crescent, 7% visible
METAR URMT 280500Z 31004MPS 9999 -SHRA SCT006 BKN020CB 09/09 Q1018 R25/290350 NOSIG RMK QFE725
Pressure 30.06 in
Visibility 6.2 miles
Clouds Scattered Clouds 600 ft
Mostly Cloudy 2000 ft
Dew Point 48 °F
Humidity 100%
Rainfall 0.00 in
Snow Depth Not available.
6:06 AM 5:57 PM
Waning Crescent, 7% visible
METAR URMT 280500Z 31004MPS 9999 -SHRA SCT006 BKN020CB 09/09 Q1018 R25/290350 NOSIG RMK QFE725

10-Day Weather Forecast

×

Almanac

Astronomy

Sep. 28, 2016 Rise Set
Actual Time
Civil Twilight
Nautical Twilight
Astronomical Twilight
Moon
Length of Visible Light
Length of Day
Tomorrow will be .
, % of the Moon is Illuminated

Today's Extremes

Country Highs Country Lows

Community

WunderPhotos

Upload Photos

1,942,213 photos uploaded!

WunderBlog® & News

Nearby

Air Quality

  Air Quality AQ Index Pollutant
Not available.

Snow Depth

Station Depth Elevation

Earthquake Activity

City Distance Mag. Time & Date
Minimum magnitude displayed is 2.5.

Coastal Water Temperatures

Place Temperature

Stations

Nearby Weather Stations

Station Location Temp. Windchill Dew Point Humidity Wind Precip. Elev Updated Type